createdAt,value
2023-05-11T00:01:59.657Z,100765.72
2023-05-11T00:04:30.238Z,100760.56
2023-05-11T00:07:00.803Z,100762.63
2023-05-11T00:09:31.640Z,100768.56
2023-05-11T00:12:01.833Z,100768.78
2023-05-11T00:17:19.626Z,100765.44
2023-05-11T00:19:51.270Z,100754.91
2023-05-11T00:22:21.527Z,100761.94
2023-05-11T00:24:51.646Z,100759.00
2023-05-11T00:27:21.672Z,100764.09
2023-05-11T00:29:58.279Z,100762.22
2023-05-11T00:32:38.578Z,100769.81
2023-05-11T00:35:10.136Z,100767.34
2023-05-11T00:37:40.506Z,100761.97
2023-05-11T00:40:14.249Z,100763.00
2023-05-11T00:42:46.591Z,100773.72
2023-05-11T00:45:16.609Z,100769.59
2023-05-11T00:47:49.462Z,100775.09
2023-05-11T00:50:21.572Z,100775.47
2023-05-11T00:52:54.415Z,100774.66
2023-05-11T00:55:27.869Z,100770.06
2023-05-11T00:57:57.929Z,100776.03
2023-05-11T01:00:28.342Z,100784.13
2023-05-11T01:03:02.942Z,100780.63
2023-05-11T01:05:50.075Z,100775.00
2023-05-11T01:08:30.390Z,100770.63
2023-05-11T01:11:11.325Z,100768.41
2023-05-11T01:13:48.893Z,100777.69
2023-05-11T01:16:27.882Z,100769.03
2023-05-11T01:19:11.251Z,100779.94
2023-05-11T01:21:46.316Z,100778.28
2023-05-11T01:24:40.875Z,100781.16
2023-05-11T01:27:34.849Z,100784.84
2023-05-11T01:30:37.830Z,100785.03
2023-05-11T01:33:12.556Z,100786.84
2023-05-11T01:35:47.662Z,100784.31
2023-05-11T01:38:21.831Z,100790.69
2023-05-11T01:41:03.238Z,100785.72
2023-05-11T01:43:38.257Z,100794.97
2023-05-11T01:46:19.134Z,100798.41
2023-05-11T01:48:54.373Z,100797.97
2023-05-11T01:51:37.159Z,100795.28
2023-05-11T01:54:12.053Z,100798.59
2023-05-11T01:56:47.522Z,100801.91
2023-05-11T01:59:19.994Z,100804.78
2023-05-11T02:01:53.030Z,100803.31
2023-05-11T02:04:27.705Z,100806.38
2023-05-11T02:07:02.449Z,100815.22
2023-05-11T02:09:35.829Z,100808.97
2023-05-11T02:12:10.038Z,100809.09
2023-05-11T02:14:44.858Z,100809.47
2023-05-11T02:17:23.026Z,100819.91
2023-05-11T02:19:54.787Z,100817.81
2023-05-11T02:22:27.913Z,100821.69
2023-05-11T02:24:58.182Z,100823.72
2023-05-11T02:27:28.456Z,100823.53
2023-05-11T02:30:02.462Z,100818.44
2023-05-11T02:32:38.294Z,100818.06
2023-05-11T02:35:14.454Z,100820.09
2023-05-11T02:37:49.628Z,100817.41
2023-05-11T02:40:31.632Z,100816.34
2023-05-11T02:43:14.546Z,100815.06
2023-05-11T02:45:55.474Z,100818.47
2023-05-11T02:48:34.088Z,100825.00
2023-05-11T02:51:09.186Z,100808.72
2023-05-11T02:53:47.075Z,100817.31
2023-05-11T02:56:17.993Z,100824.69
2023-05-11T02:58:48.467Z,100821.19
2023-05-11T03:01:23.669Z,100819.25
2023-05-11T03:03:57.488Z,100829.31
2023-05-11T03:06:29.605Z,100826.00
2023-05-11T03:09:01.772Z,100816.06
2023-05-11T03:11:33.793Z,100817.97
2023-05-11T03:14:05.603Z,100829.47
2023-05-11T03:16:40.588Z,100826.16
2023-05-11T03:19:14.116Z,100827.97
2023-05-11T03:21:49.555Z,100834.53
2023-05-11T03:24:20.836Z,100830.56
2023-05-11T03:26:52.721Z,100838.94
2023-05-11T03:29:26.550Z,100836.00
2023-05-11T03:31:57.781Z,100835.53
2023-05-11T03:34:31.602Z,100838.13
2023-05-11T03:37:03.518Z,100835.81
2023-05-11T03:39:35.491Z,100833.81
2023-05-11T03:42:06.977Z,100835.47
2023-05-11T03:44:39.994Z,100834.63
2023-05-11T03:47:12.247Z,100834.16
2023-05-11T03:49:46.081Z,100831.66
2023-05-11T03:52:16.741Z,100833.50
2023-05-11T03:54:47.468Z,100824.19
2023-05-11T03:57:18.366Z,100834.69
2023-05-11T03:59:49.229Z,100835.53
2023-05-11T04:02:19.619Z,100840.22
2023-05-11T04:04:53.268Z,100830.56
2023-05-11T04:07:23.605Z,100839.84
2023-05-11T04:09:53.706Z,100839.97
2023-05-11T04:12:23.804Z,100836.00
2023-05-11T04:14:53.819Z,100840.22
2023-05-11T04:17:24.185Z,100839.97
2023-05-11T04:19:57.009Z,100837.78
2023-05-11T04:22:27.063Z,100836.94
2023-05-11T04:24:57.194Z,100838.38
2023-05-11T04:27:27.239Z,100845.16
2023-05-11T04:29:57.350Z,100844.91
2023-05-11T04:32:28.521Z,100838.78
2023-05-11T04:35:03.251Z,100848.59
2023-05-11T04:37:37.355Z,100843.81
2023-05-11T04:40:13.487Z,100846.56
2023-05-11T04:42:45.526Z,100850.59
2023-05-11T04:45:21.493Z,100849.09
2023-05-11T04:47:51.698Z,100852.47
2023-05-11T04:50:24.735Z,100855.91
2023-05-11T04:52:55.860Z,100857.84
2023-05-11T04:55:26.135Z,100849.09
2023-05-11T04:57:57.804Z,100858.22
2023-05-11T05:00:27.971Z,100857.41
2023-05-11T05:02:58.191Z,100869.84
2023-05-11T05:05:32.349Z,100867.59
2023-05-11T05:08:02.420Z,100861.41
2023-05-11T05:10:32.560Z,100863.72
2023-05-11T05:13:02.746Z,100863.53
2023-05-11T05:15:37.002Z,100859.63
2023-05-11T05:18:10.537Z,100859.63
2023-05-11T05:20:43.303Z,100865.41
2023-05-11T05:23:13.393Z,100870.81
2023-05-11T05:25:43.574Z,100875.34
2023-05-11T05:28:13.668Z,100876.16
2023-05-11T05:30:43.911Z,100869.38
2023-05-11T05:33:19.531Z,100879.03
2023-05-11T05:35:52.500Z,100877.34
2023-05-11T05:38:23.097Z,100881.78
2023-05-11T05:40:53.880Z,100883.59
2023-05-11T05:43:25.841Z,100884.84
2023-05-11T05:46:00.325Z,100882.94
2023-05-11T05:48:32.412Z,100890.19
2023-05-11T05:51:05.745Z,100900.63
2023-05-11T05:53:35.884Z,100890.44
2023-05-11T05:56:08.061Z,100902.28
2023-05-11T05:58:41.438Z,100901.81
2023-05-11T06:01:11.952Z,100906.91
2023-05-11T06:03:45.222Z,100897.66
2023-05-11T06:06:18.134Z,100904.31
2023-05-11T06:08:48.495Z,100908.81
2023-05-11T06:11:19.396Z,100908.00
2023-05-11T06:13:49.736Z,100895.03
2023-05-11T06:16:20.951Z,100895.16
2023-05-11T06:18:51.219Z,100898.53
2023-05-11T06:21:23.983Z,100901.47
2023-05-11T06:23:56.629Z,100896.88
2023-05-11T06:26:33.093Z,100905.00
2023-05-11T06:29:03.234Z,100896.53
2023-05-11T06:31:34.308Z,100898.94
2023-05-11T06:34:04.735Z,100899.84
2023-05-11T06:36:39.344Z,100901.88
2023-05-11T06:39:09.887Z,100902.41
2023-05-11T06:41:39.981Z,100902.53
2023-05-11T06:44:10.210Z,100906.06
2023-05-11T06:46:41.587Z,100897.13
2023-05-11T06:49:11.702Z,100900.53
2023-05-11T06:51:44.695Z,100905.81
2023-05-11T06:54:14.922Z,100900.06
2023-05-11T06:56:45.199Z,100893.38
2023-05-11T06:59:21.541Z,100898.03
2023-05-11T07:01:51.698Z,100903.66
2023-05-11T07:04:21.806Z,100899.41
2023-05-11T07:06:57.338Z,100894.25
2023-05-11T07:09:27.546Z,100897.66
2023-05-11T07:11:58.796Z,100905.28
2023-05-11T07:14:28.937Z,100903.94
2023-05-11T07:17:01.254Z,100911.06
2023-05-11T07:19:31.408Z,100905.41
2023-05-11T07:22:07.357Z,100910.53
2023-05-11T07:24:38.144Z,100912.44
2023-05-11T07:27:14.405Z,100908.03
2023-05-11T07:29:44.510Z,100901.28
2023-05-11T07:32:16.436Z,100910.25
2023-05-11T07:34:48.651Z,100903.31
2023-05-11T07:37:24.156Z,100910.00
2023-05-11T07:39:54.524Z,100910.22
2023-05-11T07:42:25.008Z,100912.47
2023-05-11T07:44:55.385Z,100910.59
2023-05-11T07:47:25.567Z,100899.34
2023-05-11T07:49:55.728Z,100904.78
2023-05-11T07:52:30.607Z,100903.50
2023-05-11T07:55:00.732Z,100900.63
2023-05-11T07:57:31.247Z,100899.38
2023-05-11T08:00:01.426Z,100896.28
2023-05-11T08:02:42.361Z,100901.59
2023-05-11T08:05:15.755Z,100910.59
2023-05-11T08:07:52.156Z,100908.69
2023-05-11T08:10:22.312Z,100908.41
2023-05-11T08:12:55.931Z,100891.84
2023-05-11T08:15:26.339Z,100906.06
2023-05-11T08:17:57.007Z,100901.53
2023-05-11T08:20:27.206Z,100904.16
2023-05-11T08:22:59.974Z,100905.31
2023-05-11T08:25:40.471Z,100901.06
2023-05-11T08:28:10.617Z,100910.91
2023-05-11T08:30:40.688Z,100903.22
2023-05-11T08:33:28.878Z,100908.44
2023-05-11T08:36:04.047Z,100895.88
2023-05-11T08:38:37.978Z,100903.03
2023-05-11T08:41:11.408Z,100905.63
2023-05-11T08:43:43.221Z,100904.25
2023-05-11T08:46:20.805Z,100900.41
2023-05-11T08:48:53.086Z,100895.28
2023-05-11T08:51:23.167Z,100895.03
2023-05-11T08:53:57.969Z,100894.75
2023-05-11T08:56:33.068Z,100896.09
2023-05-11T08:59:05.082Z,100896.38
2023-05-11T09:01:39.287Z,100898.88
2023-05-11T09:04:10.076Z,100895.06
2023-05-11T09:06:41.435Z,100887.69
2023-05-11T09:09:18.392Z,100914.16
2023-05-11T09:11:48.542Z,100892.03
2023-05-11T09:14:19.142Z,100888.50
2023-05-11T09:16:49.496Z,100879.47
2023-05-11T09:19:19.905Z,100898.75
2023-05-11T09:21:50.626Z,100893.22
2023-05-11T09:24:24.452Z,100883.91
2023-05-11T09:27:09.493Z,100881.94
2023-05-11T09:29:39.615Z,100899.00
2023-05-11T09:32:10.573Z,100879.69
2023-05-11T09:34:43.127Z,100867.78
2023-05-11T09:37:20.273Z,100888.66
2023-05-11T09:42:32.784Z,100872.50
2023-05-11T09:45:02.804Z,100892.63
2023-05-11T09:47:46.344Z,100881.19
2023-05-11T09:50:26.398Z,100891.00
2023-05-11T09:52:56.953Z,100898.34
2023-05-11T09:55:30.162Z,100892.31
2023-05-11T09:58:04.562Z,100897.53
2023-05-11T10:00:45.772Z,100894.19
2023-05-11T10:03:20.335Z,100888.09
2023-05-11T10:06:03.756Z,100890.00
2023-05-11T10:08:34.991Z,100881.13
2023-05-11T10:11:10.457Z,100884.31
2023-05-11T10:13:43.395Z,100895.88
2023-05-11T10:16:15.695Z,100891.75
2023-05-11T10:18:47.409Z,100878.31
2023-05-11T10:21:18.528Z,100872.41
2023-05-11T10:23:48.851Z,100877.09
2023-05-11T10:26:22.168Z,100875.22
2023-05-11T10:28:52.483Z,100882.56
2023-05-11T10:31:24.740Z,100874.97
2023-05-11T10:33:55.645Z,100879.94
2023-05-11T10:36:26.477Z,100871.00
2023-05-11T10:38:58.781Z,100880.03
2023-05-11T10:41:43.340Z,100882.78
2023-05-11T10:44:35.549Z,100883.13
2023-05-11T10:47:33.437Z,100882.75
2023-05-11T10:50:21.529Z,100869.97
2023-05-11T10:53:12.109Z,100862.25
2023-05-11T10:56:06.486Z,100869.41
2023-05-11T10:59:01.107Z,100864.38
2023-05-11T11:01:42.273Z,100860.94
2023-05-11T11:04:13.984Z,100874.56
2023-05-11T11:06:46.530Z,100879.25
2023-05-11T11:09:18.174Z,100884.50
2023-05-11T11:11:51.326Z,100866.03
2023-05-11T11:14:26.449Z,100883.19
2023-05-11T11:17:28.060Z,100871.53
2023-05-11T11:20:01.333Z,100875.06
2023-05-11T11:22:51.289Z,100886.47
2023-05-11T11:25:55.560Z,100888.94
2023-05-11T11:28:26.313Z,100878.03
2023-05-11T11:31:34.154Z,100882.47
2023-05-11T11:34:34.140Z,100891.56
2023-05-11T11:37:13.031Z,100888.69
2023-05-11T11:40:14.043Z,100889.44
2023-05-11T11:42:59.984Z,100889.84
2023-05-11T11:45:36.529Z,100887.38
2023-05-11T11:48:32.344Z,100874.19
2023-05-11T11:51:10.068Z,100888.31
2023-05-11T11:54:04.125Z,100884.19
2023-05-11T11:56:47.108Z,100896.84
2023-05-11T11:59:21.534Z,100890.44
2023-05-11T12:01:56.053Z,100885.66
2023-05-11T12:04:42.151Z,100889.78
2023-05-11T12:07:15.667Z,100887.91
2023-05-11T12:09:49.125Z,100894.38
2023-05-11T12:12:23.465Z,100898.78
2023-05-11T12:14:53.658Z,100887.22
2023-05-11T12:17:29.534Z,100887.72
2023-05-11T12:20:15.127Z,100902.22
2023-05-11T12:22:47.092Z,100898.50
2023-05-11T12:25:19.255Z,100896.91
2023-05-11T12:27:51.675Z,100915.69
2023-05-11T12:30:26.142Z,100888.91
2023-05-11T12:32:57.887Z,100885.00
2023-05-11T12:35:32.370Z,100889.00
2023-05-11T12:38:06.147Z,100897.34
2023-05-11T12:40:36.783Z,100900.25
2023-05-11T12:43:09.260Z,100888.97
2023-05-11T12:45:39.517Z,100894.91
2023-05-11T12:48:11.085Z,100884.28
2023-05-11T12:50:49.178Z,100887.59
2023-05-11T12:53:21.488Z,100892.56
2023-05-11T12:56:18.030Z,100898.31
2023-05-11T12:58:49.492Z,100884.16
2023-05-11T13:01:26.911Z,100897.16
2023-05-11T13:03:57.299Z,100895.81
2023-05-11T13:06:37.003Z,100879.22
2023-05-11T13:09:13.033Z,100883.31
2023-05-11T13:11:44.486Z,100883.63
2023-05-11T13:14:19.600Z,100886.00
2023-05-11T13:16:57.056Z,100887.59
2023-05-11T13:19:31.566Z,100884.47
2023-05-11T13:22:04.594Z,100882.72
2023-05-11T13:24:35.046Z,100885.78
2023-05-11T13:27:05.801Z,100873.81
2023-05-11T13:29:38.574Z,100878.03
2023-05-11T13:32:12.205Z,100880.13
2023-05-11T13:34:42.482Z,100882.28
2023-05-11T13:37:18.331Z,100869.16
2023-05-11T13:39:50.780Z,100859.47
2023-05-11T13:42:20.887Z,100869.09
2023-05-11T13:44:51.233Z,100867.13
2023-05-11T13:47:21.375Z,100863.72
2023-05-11T13:49:51.522Z,100874.09
2023-05-11T13:52:25.228Z,100868.63
2023-05-11T13:54:56.688Z,100862.44
2023-05-11T13:57:27.003Z,100868.03
2023-05-11T13:59:57.033Z,100863.84
2023-05-11T14:02:29.263Z,100866.97
2023-05-11T14:04:59.510Z,100875.69
2023-05-11T14:07:45.707Z,100871.16
2023-05-11T14:10:18.022Z,100866.28
2023-05-11T14:12:51.448Z,100869.06
2023-05-11T14:15:22.022Z,100858.72
2023-05-11T14:17:55.024Z,100866.22
2023-05-11T14:20:25.545Z,100852.47
2023-05-11T14:22:58.428Z,100860.38
2023-05-11T14:25:28.561Z,100856.59
2023-05-11T14:27:58.848Z,100855.63
2023-05-11T14:30:28.939Z,100856.09
2023-05-11T14:32:59.049Z,100858.41
2023-05-11T14:35:29.211Z,100844.41
2023-05-11T14:38:03.018Z,100851.47
2023-05-11T14:40:52.289Z,100857.03
2023-05-11T14:43:22.907Z,100849.59
2023-05-11T14:45:53.688Z,100850.66
2023-05-11T14:48:24.763Z,100857.78
2023-05-11T14:50:55.833Z,100854.06
2023-05-11T14:53:30.364Z,100851.75
2023-05-11T14:56:00.734Z,100854.69
2023-05-11T14:58:31.365Z,100858.25
2023-05-11T15:01:09.844Z,100852.91
2023-05-11T15:03:42.954Z,100852.59
2023-05-11T15:06:21.246Z,100858.97
2023-05-11T15:08:54.339Z,100862.81
2023-05-11T15:11:26.364Z,100861.91
2023-05-11T15:13:58.922Z,100869.47
2023-05-11T15:16:29.119Z,100872.53
2023-05-11T15:18:59.449Z,100865.84
2023-05-11T15:21:31.834Z,100868.56
2023-05-11T15:24:04.730Z,100871.84
2023-05-11T15:26:40.788Z,100886.94
2023-05-11T15:29:11.542Z,100873.63
2023-05-11T15:31:41.887Z,100880.94
2023-05-11T15:34:12.122Z,100884.22
2023-05-11T15:36:43.216Z,100874.38
2023-05-11T15:39:23.468Z,100888.47
2023-05-11T15:41:58.397Z,100890.31
2023-05-11T15:44:42.472Z,100889.47
2023-05-11T15:47:17.215Z,100905.31
2023-05-11T15:49:50.359Z,100889.81
2023-05-11T15:52:23.545Z,100895.16
2023-05-11T15:54:57.895Z,100886.84
2023-05-11T15:57:32.504Z,100898.25
2023-05-11T16:00:07.746Z,100900.38
2023-05-11T16:02:40.521Z,100889.53
2023-05-11T16:05:14.149Z,100896.13
2023-05-11T16:07:47.602Z,100895.63
2023-05-11T16:10:29.035Z,100889.53
2023-05-11T16:13:00.042Z,100890.69
2023-05-11T16:15:31.418Z,100897.91
2023-05-11T16:18:20.670Z,100900.84
2023-05-11T16:20:50.887Z,100892.63
2023-05-11T16:23:27.464Z,100895.34
2023-05-11T16:26:01.096Z,100899.94
2023-05-11T16:28:34.107Z,100901.59
2023-05-11T16:31:07.670Z,100907.00
2023-05-11T16:33:38.204Z,100903.47
2023-05-11T16:36:31.992Z,100905.34
2023-05-11T16:39:02.282Z,100906.53
2023-05-11T16:41:34.996Z,100903.22
2023-05-11T16:44:05.132Z,100906.75
2023-05-11T16:46:36.568Z,100901.59
2023-05-11T16:49:06.892Z,100907.31
2023-05-11T16:51:37.005Z,100908.84
2023-05-11T16:54:07.234Z,100911.38
2023-05-11T16:56:42.961Z,100913.16
2023-05-11T16:59:16.257Z,100910.81
2023-05-11T17:01:54.680Z,100917.03
2023-05-11T17:04:24.781Z,100907.88
2023-05-11T17:06:55.116Z,100920.66
2023-05-11T17:09:26.434Z,100928.91
2023-05-11T17:11:59.093Z,100912.56
2023-05-11T17:14:35.265Z,100914.53
2023-05-11T17:17:07.695Z,100925.94
2023-05-11T17:19:40.213Z,100928.53
2023-05-11T17:22:11.149Z,100928.53
2023-05-11T17:24:44.503Z,100922.75
2023-05-11T17:27:17.245Z,100929.56
2023-05-11T17:29:47.435Z,100932.50
2023-05-11T17:32:20.277Z,100931.09
2023-05-11T17:34:54.043Z,100931.09
2023-05-11T17:37:31.843Z,100937.09
2023-05-11T17:40:03.059Z,100934.03
2023-05-11T17:42:39.971Z,100941.63
2023-05-11T17:45:12.039Z,100942.06
2023-05-11T17:47:42.697Z,100951.56
2023-05-11T17:52:47.651Z,100956.91
2023-05-11T17:55:20.002Z,100953.97
2023-05-11T17:57:55.853Z,100954.94
2023-05-11T18:00:27.662Z,100956.34
2023-05-11T18:02:58.288Z,100963.63
2023-05-11T18:05:44.660Z,100964.22
2023-05-11T18:08:18.384Z,100962.69
2023-05-11T18:10:48.793Z,100968.59
2023-05-11T18:13:22.802Z,100979.25
2023-05-11T18:15:59.828Z,100975.19
2023-05-11T18:18:33.208Z,100970.47
2023-05-11T18:21:07.901Z,100966.59
2023-05-11T18:23:38.025Z,100971.16
2023-05-11T18:26:09.021Z,100977.38
2023-05-11T18:28:43.301Z,100975.81
2023-05-11T18:31:13.608Z,100973.78
2023-05-11T18:33:43.782Z,100980.69
2023-05-11T18:36:15.206Z,100989.22
2023-05-11T18:38:45.887Z,100985.75
2023-05-11T18:41:20.365Z,100990.78
2023-05-11T18:43:54.564Z,100995.94
2023-05-11T18:46:24.720Z,100999.31
2023-05-11T18:48:55.642Z,100996.25
2023-05-11T18:51:26.361Z,101004.69
2023-05-11T18:53:59.314Z,101007.19
2023-05-11T18:56:44.199Z,101015.28
2023-05-11T18:59:22.010Z,101014.66
2023-05-11T19:01:54.152Z,101015.34
2023-05-11T19:04:24.393Z,101019.09
2023-05-11T19:06:54.422Z,101023.06
2023-05-11T19:09:24.886Z,101025.53
2023-05-11T19:11:55.193Z,101034.91
2023-05-11T19:14:27.920Z,101034.56
2023-05-11T19:16:58.038Z,101045.19
2023-05-11T19:19:33.411Z,101037.16
2023-05-11T19:22:03.783Z,101048.59
2023-05-11T19:24:33.816Z,101051.13
2023-05-11T19:27:07.864Z,101053.50
2023-05-11T19:29:43.875Z,101051.22
2023-05-11T19:32:14.332Z,101058.06
2023-05-11T19:34:44.457Z,101060.13
2023-05-11T19:37:21.786Z,101066.38
2023-05-11T19:39:54.254Z,101072.63
2023-05-11T19:42:38.816Z,101070.59
2023-05-11T19:45:19.355Z,101069.75
2023-05-11T19:47:51.121Z,101071.00
2023-05-11T19:50:24.242Z,101069.81
2023-05-11T19:52:55.520Z,101074.19
2023-05-11T19:55:27.346Z,101072.31
2023-05-11T19:57:57.822Z,101073.53
2023-05-11T20:00:34.207Z,101076.44
2023-05-11T20:03:04.433Z,101082.47
2023-05-11T20:05:35.348Z,101078.13
2023-05-11T20:08:06.046Z,101077.75
2023-05-11T20:10:36.532Z,101085.22
2023-05-11T20:13:11.050Z,101084.13
2023-05-11T20:15:43.799Z,101087.66
2023-05-11T20:18:14.164Z,101088.09
2023-05-11T20:20:46.470Z,101093.06
2023-05-11T20:23:18.468Z,101091.44
2023-05-11T20:25:48.589Z,101092.72
2023-05-11T20:28:21.052Z,101078.63
2023-05-11T20:30:53.796Z,101093.97
2023-05-11T20:35:56.784Z,101093.16
2023-05-11T20:38:30.660Z,101082.19
2023-05-11T20:41:00.877Z,101094.63
2023-05-11T20:43:30.967Z,101092.34
2023-05-11T20:46:08.025Z,101094.22
2023-05-11T20:48:51.582Z,101099.81
2023-05-11T20:51:24.182Z,101094.44
2023-05-11T20:53:54.279Z,101097.72
2023-05-11T20:56:24.638Z,101102.91
2023-05-11T20:58:57.374Z,101097.31
2023-05-11T21:01:33.415Z,101101.66
2023-05-11T21:04:03.702Z,101106.81
2023-05-11T21:06:33.741Z,101102.69
2023-05-11T21:09:04.692Z,101095.47
2023-05-11T21:11:34.812Z,101100.03
2023-05-11T21:14:05.042Z,101107.09
2023-05-11T21:16:38.364Z,101105.44
2023-05-11T21:19:08.622Z,101103.59
2023-05-11T21:21:38.840Z,101104.19
2023-05-11T21:24:10.640Z,101107.28
2023-05-11T21:26:42.556Z,101108.94
2023-05-11T21:29:13.250Z,101114.31
2023-05-11T21:31:45.962Z,101105.44
2023-05-11T21:34:17.028Z,101109.78
2023-05-11T21:36:47.126Z,101117.22
2023-05-11T21:39:21.474Z,101112.25
2023-05-11T21:41:51.794Z,101116.19
2023-05-11T21:44:23.356Z,101112.88
2023-05-11T21:46:56.588Z,101119.28
2023-05-11T21:49:27.072Z,101121.34
2023-05-11T21:51:57.487Z,101120.94
2023-05-11T21:54:35.996Z,101130.88
2023-05-11T21:57:06.283Z,101129.63
2023-05-11T21:59:36.399Z,101127.34
2023-05-11T22:02:10.183Z,101135.00
2023-05-11T22:04:40.532Z,101135.22
2023-05-11T22:07:12.186Z,101136.66
2023-05-11T22:09:42.608Z,101138.09
2023-05-11T22:12:15.504Z,101139.34
2023-05-11T22:14:46.209Z,101141.84
2023-05-11T22:17:18.977Z,101145.34
2023-05-11T22:19:49.343Z,101144.94
2023-05-11T22:22:21.564Z,101146.59
2023-05-11T22:24:52.020Z,101133.56
2023-05-11T22:27:22.555Z,101151.13
2023-05-11T22:29:56.080Z,101151.50
2023-05-11T22:32:32.133Z,101153.56
2023-05-11T22:35:10.731Z,101146.34
2023-05-11T22:37:41.020Z,101150.66
2023-05-11T22:40:12.422Z,101155.41
2023-05-11T22:42:46.664Z,101152.09
2023-05-11T22:45:17.023Z,101155.94
2023-05-11T23:37:47.150Z,101154.34
2023-05-11T23:40:18.913Z,101153.91
2023-05-11T23:42:49.844Z,101158.63
2023-05-11T23:45:20.473Z,101158.63
2023-05-11T23:47:51.311Z,101160.03
2023-05-11T23:50:21.930Z,101156.28
2023-05-11T23:52:55.314Z,101153.78
2023-05-11T23:55:25.669Z,101156.19
2023-05-11T23:57:58.990Z,101147.66
